Time;durP1;ratioP1;P1;durP2;ratioP2;P2;SDS_P1;SDS_P2;PMS_P1;PMS_P2;Temp;Humidity;BMP_temperature;BMP_pressure;BME280_temperature;BME280_humidity;BME280_pressure;Samples;Min_cycle;Max_cycle;Signal;HPM_P1;HPM_P2
2023/06/17 00:15:37;;;;;;;12.60;9.38;;;;;;;;;;4607157;30;20062;-84
2023/06/17 00:31:01;;;;;;;;;;;;;;;;;;;;;
2023/06/17 00:34:20;;;;;;;16.58;11.65;;;;;;;;;;4765231;29;20108;-85
2023/06/17 00:37:44;;;;;;;15.00;11.85;;;;;;;;;;4789154;29;20486;-85
2023/06/17 00:44:30;;;;;;;;;;;;;;;;;;;;;
2023/06/17 00:48:15;;;;;;;;;;;;;;;;;;;;;
2023/06/17 00:54:37;;;;;;;;;;;;;;;;;;;;;
2023/06/17 01:19:02;;;;;;;;;;;;;;;;;;;;;
2023/06/17 01:27:38;;;;;;;;;;;;;;;;;;;;;
2023/06/17 01:37:03;;;;;;;19.15;14.98;;;;;;;;;;5013896;28;20045;-85
2023/06/17 01:40:06;;;;;;;19.05;16.17;;;;;;;;;;4998528;28;20479;-84
2023/06/17 01:43:49;;;;;;;20.10;16.25;;;;;;;;;;4969184;28;20173;-84
2023/06/17 01:54:33;;;;;;;22.13;17.30;;;;;;;;;;4767210;29;20043;-84
2023/06/17 02:03:57;;;;;;;23.08;16.92;;;;;;;;;;4815162;29;20404;-84
2023/06/17 02:10:54;;;;;;;19.20;17.08;;;;;;;;;;4788523;29;20141;-85
2023/06/17 02:13:53;;;;;;;23.23;20.15;;;;;;;;;;4862273;28;20179;-84
2023/06/17 02:20:44;;;;;;;;;;;;;;;;;;;;;
2023/06/17 02:27:52;;;;;;;;;;;;;;;;;;;;;
2023/06/17 02:30:55;;;;;;;23.75;18.92;;;;;;;;;;4909105;28;20062;-84
2023/06/17 02:34:00;;;;;;;20.52;17.98;;;;;;;;;;4949186;28;20142;-85
2023/06/17 02:40:21;;;;;;;;;;;;;;;;;;;;;
2023/06/17 02:43:31;;;;;;;;;;;;;;;;;;;;;
2023/06/17 02:53:05;;;;;;;;;;;;;;;;;;;;;
2023/06/17 03:03:06;;;;;;;;;;;;;;;;;;;;;
2023/06/17 03:12:19;;;;;;;23.92;19.60;;;;;;;;;;4929908;28;20046;-84
2023/06/17 03:15:04;;;;;;;24.65;18.83;;;;;;;;;;4949369;28;20058;-84
2023/06/17 03:31:33;;;;;;;;;;;;;;;;;;;;;
2023/06/17 03:37:59;;;;;;;22.63;19.88;;;;;;;;;;4856984;28;20108;-84
2023/06/17 04:04:15;;;;;;;21.63;18.95;;;;;;;;;;4949294;28;20078;-86
2023/06/17 04:41:22;;;;;;;21.75;17.88;;;;;;;;;;4953571;28;20460;-85
2023/06/17 04:44:36;;;;;;;;;;;;;;;;;;;;;
2023/06/17 05:01:56;;;;;;;24.55;20.75;;;;;;;;;;4947704;28;20406;-85
2023/06/17 05:14:50;;;;;;;23.60;19.83;;;;;;;;;;4834943;29;20047;-86
2023/06/17 05:27:20;;;;;;;23.50;21.00;;;;;;;;;;4840357;29;20049;-86
2023/06/17 05:30:32;;;;;;;23.75;20.67;;;;;;;;;;4786455;29;20053;-85
2023/06/17 05:33:32;;;;;;;22.20;19.83;;;;;;;;;;4874909;29;20055;-82
2023/06/17 05:36:46;;;;;;;23.27;20.88;;;;;;;;;;4867638;29;20060;-82
2023/06/17 05:39:46;;;;;;;;;;;;;;;;;;;;;
2023/06/17 05:46:33;;;;;;;20.98;18.38;;;;;;;;;;4893674;28;20067;-83
2023/06/17 05:53:25;;;;;;;;;;;;;;;;;;;;;
2023/06/17 06:04:33;;;;;;;21.15;18.88;;;;;;;;;;4765650;29;20530;-83
2023/06/17 06:09:43;;;;;;;25.50;21.75;;;;;;;;;;4988754;28;20488;-81
2023/06/17 06:12:10;;;;;;;22.77;20.33;;;;;;;;;;4981017;28;20048;-81
2023/06/17 06:14:36;;;;;;;22.35;19.73;;;;;;;;;;4995850;28;20053;-81
2023/06/17 06:17:02;;;;;;;23.17;19.27;;;;;;;;;;4991568;28;20107;-81
2023/06/17 06:19:28;;;;;;;21.50;18.83;;;;;;;;;;4961958;28;20381;-81
2023/06/17 06:21:54;;;;;;;22.95;19.15;;;;;;;;;;4994102;28;20400;-81
2023/06/17 06:24:20;;;;;;;23.23;20.85;;;;;;;;;;4960549;28;20044;-82
2023/06/17 06:26:46;;;;;;;20.42;18.33;;;;;;;;;;4954867;28;20645;-81
2023/06/17 06:29:13;;;;;;;22.63;19.67;;;;;;;;;;4964614;28;20507;-82
2023/06/17 06:31:43;;;;;;;23.30;19.00;;;;;;;;;;4973056;28;20034;-82
2023/06/17 06:34:09;;;;;;;20.30;17.40;;;;;;;;;;4959270;28;20034;-82
2023/06/17 06:36:35;;;;;;;22.65;18.63;;;;;;;;;;4959107;28;20041;-82
2023/06/17 06:39:01;;;;;;;21.17;17.75;;;;;;;;;;4962911;28;20084;-81
2023/06/17 06:41:27;;;;;;;20.67;17.05;;;;;;;;;;4946419;28;20157;-81
2023/06/17 06:43:53;;;;;;;21.70;18.48;;;;;;;;;;4938499;28;20080;-82
2023/06/17 06:46:19;;;;;;;19.73;16.40;;;;;;;;;;4955473;28;20043;-81
2023/06/17 06:48:45;;;;;;;20.08;18.13;;;;;;;;;;4957342;28;20052;-82
2023/06/17 06:51:11;;;;;;;19.42;17.33;;;;;;;;;;4959296;28;20047;-81
2023/06/17 06:53:37;;;;;;;20.88;18.55;;;;;;;;;;4964314;28;20463;-82
2023/06/17 06:56:03;;;;;;;19.00;16.10;;;;;;;;;;4948321;28;20042;-81
2023/06/17 06:58:30;;;;;;;20.85;18.75;;;;;;;;;;4979225;28;20401;-81
2023/06/17 07:00:56;;;;;;;20.08;17.85;;;;;;;;;;4951282;28;20726;-82
2023/06/17 07:03:22;;;;;;;19.15;17.08;;;;;;;;;;4979539;28;20033;-82
2023/06/17 07:05:48;;;;;;;19.10;16.60;;;;;;;;;;4972440;28;20042;-83
2023/06/17 07:08:14;;;;;;;21.45;17.80;;;;;;;;;;4997124;28;20409;-83
2023/06/17 07:10:40;;;;;;;18.65;16.42;;;;;;;;;;4957573;28;20050;-83
2023/06/17 07:13:07;;;;;;;23.25;17.05;;;;;;;;;;4945469;28;20041;-83
2023/06/17 07:15:33;;;;;;;21.08;18.70;;;;;;;;;;4976064;28;20045;-83
2023/06/17 07:17:59;;;;;;;21.08;17.10;;;;;;;;;;4952629;28;20045;-83
2023/06/17 07:20:25;;;;;;;18.88;16.60;;;;;;;;;;4938125;28;20054;-82
2023/06/17 07:22:51;;;;;;;19.77;17.75;;;;;;;;;;4953602;28;20818;-82
2023/06/17 07:25:17;;;;;;;20.60;18.17;;;;;;;;;;4941821;28;20469;-83
2023/06/17 07:27:43;;;;;;;21.88;19.55;;;;;;;;;;4946941;28;20434;-82
2023/06/17 07:30:09;;;;;;;20.95;18.40;;;;;;;;;;4963585;28;20530;-83
2023/06/17 07:32:35;;;;;;;20.45;17.25;;;;;;;;;;4961312;28;20215;-83
2023/06/17 07:35:01;;;;;;;21.38;17.60;;;;;;;;;;4951848;28;20141;-82
2023/06/17 07:37:27;;;;;;;19.63;17.52;;;;;;;;;;4975121;28;20042;-82
2023/06/17 07:39:53;;;;;;;20.27;18.10;;;;;;;;;;4984872;28;20052;-83
2023/06/17 07:42:21;;;;;;;22.52;18.70;;;;;;;;;;4945379;28;20042;-82
2023/06/17 07:44:47;;;;;;;20.00;17.20;;;;;;;;;;4972862;28;21607;-83
2023/06/17 07:47:13;;;;;;;17.05;15.40;;;;;;;;;;4966701;28;20420;-83
2023/06/17 07:49:43;;;;;;;18.70;15.70;;;;;;;;;;4972423;28;20179;-84
2023/06/17 07:52:10;;;;;;;18.20;15.35;;;;;;;;;;4954765;28;20128;-83
2023/06/17 07:54:36;;;;;;;19.30;17.25;;;;;;;;;;4936247;28;20057;-83
2023/06/17 07:57:03;;;;;;;19.95;16.52;;;;;;;;;;4958521;28;20056;-83
2023/06/17 07:59:29;;;;;;;17.30;15.27;;;;;;;;;;4961081;28;20034;-83
2023/06/17 08:01:55;;;;;;;19.15;16.85;;;;;;;;;;4977881;28;20083;-83
2023/06/17 08:04:21;;;;;;;17.50;15.30;;;;;;;;;;4977615;28;20042;-83
2023/06/17 08:06:47;;;;;;;17.13;15.18;;;;;;;;;;4943506;28;20127;-87
2023/06/17 08:09:13;;;;;;;17.30;15.48;;;;;;;;;;4967980;28;20085;-85
2023/06/17 08:11:42;;;;;;;17.75;14.35;;;;;;;;;;4991225;28;20160;-85
2023/06/17 08:14:08;;;;;;;18.20;16.30;;;;;;;;;;4960930;28;20049;-85
2023/06/17 08:16:34;;;;;;;18.42;16.42;;;;;;;;;;4956311;28;20129;-85
2023/06/17 08:19:00;;;;;;;19.83;16.30;;;;;;;;;;4969341;28;20041;-83
2023/06/17 08:21:26;;;;;;;24.98;15.02;;;;;;;;;;4965427;28;20554;-83
2023/06/17 08:23:52;;;;;;;18.08;13.98;;;;;;;;;;4956173;28;20056;-83
2023/06/17 08:26:18;;;;;;;18.10;13.75;;;;;;;;;;4961779;28;20095;-83
2023/06/17 08:28:45;;;;;;;16.15;14.45;;;;;;;;;;4991526;28;20045;-83
2023/06/17 08:31:13;;;;;;;15.45;13.90;;;;;;;;;;4957539;28;20132;-91
2023/06/17 08:33:54;;;;;;;15.00;13.45;;;;;;;;;;4952486;28;20046;-91
2023/06/17 08:36:23;;;;;;;15.55;13.07;;;;;;;;;;4963312;28;20576;-91
2023/06/17 08:38:50;;;;;;;17.98;13.48;;;;;;;;;;4946824;28;20495;-90
2023/06/17 08:41:16;;;;;;;16.30;13.57;;;;;;;;;;4946128;28;20160;-92
2023/06/17 08:43:42;;;;;;;13.93;12.32;;;;;;;;;;4973445;28;20044;-91
2023/06/17 08:46:08;;;;;;;12.70;11.40;;;;;;;;;;4958040;28;20094;-92
2023/06/17 08:48:34;;;;;;;15.38;13.38;;;;;;;;;;4971859;28;20030;-92
2023/06/17 08:51:00;;;;;;;12.52;11.23;;;;;;;;;;4974129;28;21084;-92
2023/06/17 08:53:27;;;;;;;12.23;10.77;;;;;;;;;;4983211;28;20050;-91
2023/06/17 08:55:53;;;;;;;12.38;10.63;;;;;;;;;;4952971;28;20038;-91
2023/06/17 08:58:20;;;;;;;15.38;11.75;;;;;;;;;;4957550;28;20037;-92
2023/06/17 09:00:46;;;;;;;13.52;11.15;;;;;;;;;;4959232;28;20053;-91
2023/06/17 09:03:12;;;;;;;13.27;10.82;;;;;;;;;;4944282;28;20045;-92
2023/06/17 09:05:38;;;;;;;12.82;11.00;;;;;;;;;;4950167;28;20830;-91
2023/06/17 09:08:05;;;;;;;16.48;11.73;;;;;;;;;;4945938;28;20088;-92
2023/06/17 09:10:41;;;;;;;14.32;11.90;;;;;;;;;;4962038;28;20053;-93
2023/06/17 09:13:50;;;;;;;12.85;10.73;;;;;;;;;;4955203;28;20083;-92
2023/06/17 09:17:27;;;;;;;;;;;;;;;;;;;;;
2023/06/17 09:30:43;;;;;;;10.23;8.63;;;;;;;;;;5012701;23;20590;-84
2023/06/17 09:33:29;;;;;;;10.75;9.60;;;;;;;;;;4957826;28;20092;-84
2023/06/17 09:36:10;;;;;;;11.82;9.15;;;;;;;;;;4959743;28;20053;-85
2023/06/17 09:38:52;;;;;;;10.27;9.25;;;;;;;;;;4957340;28;20107;-85
2023/06/17 09:41:42;;;;;;;11.32;8.82;;;;;;;;;;4921375;29;20042;-85
2023/06/17 09:44:38;;;;;;;11.68;9.02;;;;;;;;;;4955139;28;20058;-85
2023/06/17 09:47:34;;;;;;;9.45;8.55;;;;;;;;;;4969191;28;20129;-85
2023/06/17 09:50:06;;;;;;;9.95;8.07;;;;;;;;;;4952514;28;20045;-85
2023/06/17 09:52:52;;;;;;;9.40;8.45;;;;;;;;;;4954527;28;20035;-85
2023/06/17 09:55:29;;;;;;;12.82;9.65;;;;;;;;;;4936217;28;20057;-84
2023/06/17 09:58:05;;;;;;;11.02;8.48;;;;;;;;;;4950212;28;20100;-85
2023/06/17 10:00:34;;;;;;;9.77;8.05;;;;;;;;;;4940002;28;20118;-85
2023/06/17 10:03:21;;;;;;;9.75;8.75;;;;;;;;;;4937232;28;21998;-85
2023/06/17 10:06:07;;;;;;;11.85;8.20;;;;;;;;;;4936058;28;20490;-85
2023/06/17 10:08:33;;;;;;;8.35;7.50;;;;;;;;;;4940143;28;20047;-85
2023/06/17 10:11:05;;;;;;;8.77;7.25;;;;;;;;;;4935296;28;20058;-85
2023/06/17 10:13:51;;;;;;;9.52;8.23;;;;;;;;;;4957066;28;20466;-85
2023/06/17 10:16:29;;;;;;;9.85;7.85;;;;;;;;;;4941022;28;20046;-85
2023/06/17 10:18:59;;;;;;;7.70;6.97;;;;;;;;;;4942415;28;21772;-85
2023/06/17 10:21:30;;;;;;;8.88;6.47;;;;;;;;;;4925587;28;20116;-85
2023/06/17 10:24:13;;;;;;;9.70;7.03;;;;;;;;;;4934090;28;20054;-85
2023/06/17 10:26:45;;;;;;;8.15;6.45;;;;;;;;;;4939383;28;20062;-85
2023/06/17 10:29:21;;;;;;;17.30;7.60;;;;;;;;;;4927946;28;20421;-85
2023/06/17 10:31:47;;;;;;;7.55;6.72;;;;;;;;;;4925571;28;20043;-85
2023/06/17 10:34:22;;;;;;;8.23;6.40;;;;;;;;;;4942476;28;20055;-85
2023/06/17 10:36:54;;;;;;;7.78;6.82;;;;;;;;;;4930187;28;20049;-85
2023/06/17 10:39:20;;;;;;;7.38;6.43;;;;;;;;;;4931971;28;20053;-85
2023/06/17 10:41:50;;;;;;;8.63;6.38;;;;;;;;;;4944603;28;20051;-85
2023/06/17 10:44:48;;;;;;;9.15;6.10;;;;;;;;;;4950390;28;20130;-85
2023/06/17 10:47:23;;;;;;;7.82;6.30;;;;;;;;;;4933421;28;20720;-85
2023/06/17 10:49:54;;;;;;;8.88;7.18;;;;;;;;;;4915643;28;20584;-85
2023/06/17 10:52:20;;;;;;;9.57;6.20;;;;;;;;;;4949040;28;20185;-85
2023/06/17 10:55:04;;;;;;;7.97;6.32;;;;;;;;;;4917985;28;20524;-85
2023/06/17 10:57:55;;;;;;;7.80;6.97;;;;;;;;;;4944582;28;20038;-85
2023/06/17 11:00:33;;;;;;;11.30;6.45;;;;;;;;;;4939820;28;20051;-85
2023/06/17 11:03:49;;;;;;;7.40;6.70;;;;;;;;;;4933427;28;22197;-85
2023/06/17 11:06:18;;;;;;;7.13;6.43;;;;;;;;;;4915638;28;20047;-85
2023/06/17 11:08:52;;;;;;;8.77;6.60;;;;;;;;;;4947919;28;20141;-85
2023/06/17 11:11:18;;;;;;;11.65;6.80;;;;;;;;;;4937621;28;20138;-85
2023/06/17 11:13:50;;;;;;;7.20;6.47;;;;;;;;;;4927831;28;20059;-84
2023/06/17 11:16:29;;;;;;;8.38;6.55;;;;;;;;;;4952348;28;20049;-85
2023/06/17 11:19:23;;;;;;;7.75;6.32;;;;;;;;;;4966455;28;20113;-84
2023/06/17 11:22:07;;;;;;;7.75;6.30;;;;;;;;;;4930274;28;20055;-84
2023/06/17 11:24:41;;;;;;;7.53;6.65;;;;;;;;;;4898628;28;20560;-84
2023/06/17 11:27:27;;;;;;;7.30;6.13;;;;;;;;;;4910855;28;20070;-85
2023/06/17 11:30:02;;;;;;;7.32;6.60;;;;;;;;;;4907551;28;20043;-85
2023/06/17 11:32:51;;;;;;;8.13;6.28;;;;;;;;;;4914343;28;20055;-85
2023/06/17 11:35:22;;;;;;;8.25;6.68;;;;;;;;;;4918489;29;20059;-85
2023/06/17 11:37:54;;;;;;;7.05;6.00;;;;;;;;;;4900140;28;20047;-84
2023/06/17 11:40:33;;;;;;;11.38;6.10;;;;;;;;;;4902440;28;20109;-84
2023/06/17 11:43:10;;;;;;;7.72;6.90;;;;;;;;;;4912400;28;20086;-84
2023/06/17 11:45:38;;;;;;;7.50;6.40;;;;;;;;;;4894330;28;20051;-84
2023/06/17 11:48:10;;;;;;;8.52;6.25;;;;;;;;;;4894898;28;20058;-85
2023/06/17 11:50:39;;;;;;;6.50;5.90;;;;;;;;;;4879647;28;21337;-85
2023/06/17 11:57:01;;;;;;;;;;;;;;;;;;;;;
2023/06/17 12:02:25;;;;;;;10.05;6.00;;;;;;;;;;4883169;28;20070;-86
2023/06/17 12:05:03;;;;;;;17.35;6.85;;;;;;;;;;4926674;28;20086;-85
2023/06/17 12:07:58;;;;;;;6.72;5.90;;;;;;;;;;4918989;29;20105;-85
2023/06/17 12:10:27;;;;;;;15.13;6.35;;;;;;;;;;4907907;28;20047;-85
2023/06/17 12:13:50;;;;;;;;;;;;;;;;;;;;;
2023/06/17 12:16:48;;;;;;;;;;;;;;;;;;;;;
2023/06/17 12:19:26;;;;;;;9.27;6.15;;;;;;;;;;4903478;28;20511;-86
2023/06/17 12:22:11;;;;;;;7.75;5.90;;;;;;;;;;4915340;28;21536;-85
2023/06/17 12:25:13;;;;;;;20.63;6.95;;;;;;;;;;4889517;29;20514;-86
2023/06/17 12:27:45;;;;;;;6.57;5.70;;;;;;;;;;4919230;28;20055;-85
2023/06/17 12:30:23;;;;;;;6.55;5.82;;;;;;;;;;4948096;28;20581;-85
2023/06/17 12:33:01;;;;;;;11.98;6.40;;;;;;;;;;4912727;28;20061;-85
2023/06/17 12:35:31;;;;;;;6.25;5.75;;;;;;;;;;4917227;28;20123;-85
2023/06/17 12:41:04;;;;;;;6.05;5.45;;;;;;;;;;4913466;28;20046;-85
2023/06/17 12:43:38;;;;;;;6.07;5.30;;;;;;;;;;4919354;28;20125;-85
2023/06/17 12:46:45;;;;;;;;;;;;;;;;;;;;;
2023/06/17 12:49:44;;;;;;;;;;;;;;;;;;;;;
2023/06/17 12:59:14;;;;;;;;;;;;;;;;;;;;;
2023/06/17 13:05:33;;;;;;;6.32;5.72;;;;;;;;;;4839633;29;20729;-86
2023/06/17 13:08:41;;;;;;;;;;;;;;;;;;;;;
2023/06/17 13:11:07;;;;;;;7.25;5.05;;;;;;;;;;4797145;29;20106;-85
2023/06/17 13:13:47;;;;;;;7.15;5.70;;;;;;;;;;4833798;29;20060;-86
2023/06/17 13:16:52;;;;;;;;;;;;;;;;;;;;;
2023/06/17 13:19:21;;;;;;;7.00;5.43;;;;;;;;;;4839563;29;20906;-85
2023/06/17 13:22:38;;;;;;;;;;;;;;;;;;;;;
2023/06/17 13:25:28;;;;;;;7.72;5.50;;;;;;;;;;4839865;29;20061;-86
2023/06/17 13:28:03;;;;;;;7.65;5.75;;;;;;;;;;4828248;29;20073;-86
2023/06/17 13:31:11;;;;;;;8.60;5.72;;;;;;;;;;4820777;29;20216;-85
2023/06/17 13:36:49;;;;;;;6.22;5.63;;;;;;;;;;4883902;29;20044;-85
2023/06/17 13:39:24;;;;;;;6.35;5.47;;;;;;;;;;4858930;29;20051;-85
2023/06/17 13:42:37;;;;;;;7.00;6.30;;;;;;;;;;4862119;29;20186;-85
2023/06/17 13:45:06;;;;;;;5.93;5.32;;;;;;;;;;4869487;29;20056;-85
2023/06/17 13:58:07;;;;;;;7.45;6.43;;;;;;;;;;4803350;29;20144;-86
2023/06/17 14:00:47;;;;;;;5.60;5.10;;;;;;;;;;4815616;29;20136;-85
2023/06/17 14:10:16;;;;;;;7.05;5.28;;;;;;;;;;4744964;30;20605;-85
2023/06/17 14:12:56;;;;;;;9.80;5.75;;;;;;;;;;4809416;29;20067;-85
2023/06/17 14:15:31;;;;;;;8.18;6.05;;;;;;;;;;4860385;29;20378;-85
2023/06/17 14:20:56;;;;;;;9.10;6.25;;;;;;;;;;4839509;29;20045;-85
2023/06/17 14:23:45;;;;;;;8.52;6.30;;;;;;;;;;4831799;29;20260;-85
2023/06/17 14:26:29;;;;;;;7.05;5.43;;;;;;;;;;4857750;29;20181;-85
2023/06/17 14:29:02;;;;;;;8.15;5.97;;;;;;;;;;4930700;28;20537;-85
2023/06/17 14:31:49;;;;;;;6.30;5.68;;;;;;;;;;4915973;28;20051;-85
2023/06/17 14:34:37;;;;;;;;;;;;;;;;;;;;;
2023/06/17 14:37:13;;;;;;;6.63;5.60;;;;;;;;;;4895949;28;20055;-85
2023/06/17 14:39:48;;;;;;;7.30;5.55;;;;;;;;;;4894144;28;20043;-85
2023/06/17 14:42:19;;;;;;;6.95;5.90;;;;;;;;;;4902542;28;20043;-85
2023/06/17 14:44:48;;;;;;;7.20;5.43;;;;;;;;;;4899470;28;20098;-85
2023/06/17 14:56:46;;;;;;;8.07;5.75;;;;;;;;;;4824815;29;20045;-86
2023/06/17 14:59:45;;;;;;;6.57;5.97;;;;;;;;;;4824799;29;20059;-86
2023/06/17 15:05:53;;;;;;;;;;;;;;;;;;4821688;29;20228;-85
2023/06/17 15:08:49;;;;;;;9.48;6.10;;;;;;;;;;4833934;29;20325;-85
2023/06/17 15:11:37;;;;;;;7.00;6.22;;;;;;;;;;4847894;29;20392;-86
2023/06/17 15:14:13;;;;;;;7.57;6.20;;;;;;;;;;4862418;29;20049;-86
2023/06/17 15:16:53;;;;;;;6.53;5.93;;;;;;;;;;4830054;29;20490;-85
2023/06/17 15:19:30;;;;;;;6.85;6.13;;;;;;;;;;4846871;28;20084;-85
2023/06/17 15:22:03;;;;;;;;;;;;;;;;;;4828549;29;20072;-85
2023/06/17 15:24:31;;;;;;;8.45;6.40;;;;;;;;;;4881213;29;19933;-85
2023/06/17 15:27:01;;;;;;;9.90;7.05;;;;;;;;;;4898921;28;20054;-85
2023/06/17 15:29:39;;;;;;;7.97;6.55;;;;;;;;;;4937274;28;20493;-85
2023/06/17 15:32:20;;;;;;;8.40;6.45;;;;;;;;;;4938506;28;20052;-84
2023/06/17 15:35:09;;;;;;;9.15;6.55;;;;;;;;;;4937575;28;20062;-85
2023/06/17 15:37:38;;;;;;;6.93;6.07;;;;;;;;;;4943758;28;20042;-85
2023/06/17 15:40:28;;;;;;;8.75;6.97;;;;;;;;;;4954381;28;20100;-85
2023/06/17 15:43:03;;;;;;;8.88;7.13;;;;;;;;;;4951247;28;20458;-87
2023/06/17 15:45:48;;;;;;;7.55;6.57;;;;;;;;;;4937059;28;20601;-85
2023/06/17 15:48:36;;;;;;;;;;;;;;;;;;;;;
2023/06/17 15:51:07;;;;;;;10.27;6.65;;;;;;;;;;4950278;28;20116;-85
2023/06/17 15:53:44;;;;;;;8.43;6.32;;;;;;;;;;4941605;28;20039;-85
2023/06/17 15:56:21;;;;;;;9.30;6.70;;;;;;;;;;4955333;28;20985;-85
2023/06/17 15:58:50;;;;;;;7.43;6.68;;;;;;;;;;4953159;28;20061;-84
2023/06/17 16:01:24;;;;;;;10.13;7.22;;;;;;;;;;4938123;28;20172;-85
2023/06/17 16:03:54;;;;;;;12.35;7.20;;;;;;;;;;4932230;28;20065;-85
2023/06/17 16:06:23;;;;;;;10.82;7.22;;;;;;;;;;4933033;28;20035;-85
2023/06/17 16:08:51;;;;;;;9.13;6.90;;;;;;;;;;4937043;28;20409;-84
2023/06/17 16:11:20;;;;;;;15.13;7.75;;;;;;;;;;4934791;28;20270;-85
2023/06/17 16:13:48;;;;;;;16.90;7.30;;;;;;;;;;4943041;28;20560;-85
2023/06/17 16:16:20;;;;;;;12.32;7.30;;;;;;;;;;4938854;28;20046;-85
2023/06/17 16:18:58;;;;;;;10.48;7.28;;;;;;;;;;4946267;28;20046;-87
2023/06/17 16:21:27;;;;;;;9.13;6.80;;;;;;;;;;4933302;28;20518;-84
2023/06/17 16:27:48;;;;;;;8.82;6.50;;;;;;;;;;4917751;28;20429;-83
2023/06/17 16:30:38;;;;;;;10.55;7.10;;;;;;;;;;4937057;28;20125;-83
2023/06/17 16:33:30;;;;;;;10.80;6.75;;;;;;;;;;4934203;28;20046;-83
2023/06/17 16:36:35;;;;;;;;;;;;;;;;;;;;;
2023/06/17 16:39:38;;;;;;;12.32;7.40;;;;;;;;;;4927424;28;20482;-83
2023/06/17 16:42:39;;;;;;;10.20;6.88;;;;;;;;;;4876948;29;20104;-83
2023/06/17 16:45:55;;;;;;;9.55;7.28;;;;;;;;;;4904772;29;20515;-84
2023/06/17 16:49:11;;;;;;;10.45;6.90;;;;;;;;;;4888641;29;20211;-83
2023/06/17 17:05:32;;;;;;;8.65;6.65;;;;;;;;;;4865195;29;20203;-83
2023/06/17 17:08:35;;;;;;;;;;;;;;;;;;;;;
2023/06/17 17:11:46;;;;;;;8.52;6.78;;;;;;;;;;4911226;29;20056;-83
2023/06/17 17:14:42;;;;;;;9.32;6.57;;;;;;;;;;4913588;28;20054;-83
2023/06/17 17:23:52;;;;;;;;;;;;;;;;;;;;;
2023/06/17 17:30:45;;;;;;;;;;;;;;;;;;;;;
2023/06/17 17:37:13;;;;;;;7.88;6.60;;;;;;;;;;4857693;29;23037;-83
2023/06/17 17:49:44;;;;;;;8.85;6.70;;;;;;;;;;4947770;28;20039;-83
2023/06/17 17:52:10;;;;;;;7.55;6.38;;;;;;;;;;4935271;28;20046;-82
2023/06/17 17:54:36;;;;;;;9.23;6.43;;;;;;;;;;4937629;28;20042;-83
2023/06/17 17:57:02;;;;;;;7.88;6.22;;;;;;;;;;4927850;28;20054;-83
2023/06/17 17:59:28;;;;;;;6.70;6.00;;;;;;;;;;4947946;28;20454;-84
2023/06/17 18:01:54;;;;;;;7.28;6.00;;;;;;;;;;4891540;28;20046;-83
2023/06/17 18:04:20;;;;;;;9.18;6.40;;;;;;;;;;4911849;28;21117;-83
2023/06/17 18:06:46;;;;;;;8.30;6.20;;;;;;;;;;4920899;28;20047;-83
2023/06/17 18:09:12;;;;;;;10.07;6.40;;;;;;;;;;4923241;28;20486;-83
2023/06/17 18:11:38;;;;;;;9.38;6.22;;;;;;;;;;4907664;28;20043;-83
2023/06/17 18:14:04;;;;;;;9.63;6.47;;;;;;;;;;4912479;28;20111;-83
2023/06/17 18:16:30;;;;;;;8.00;5.72;;;;;;;;;;4924333;28;20520;-83
2023/06/17 18:18:57;;;;;;;6.88;5.72;;;;;;;;;;4916607;28;20447;-83
2023/06/17 18:21:26;;;;;;;10.27;6.30;;;;;;;;;;4917530;28;20054;-84
2023/06/17 18:23:53;;;;;;;9.43;6.45;;;;;;;;;;4931530;28;20051;-83
2023/06/17 18:26:19;;;;;;;11.52;7.35;;;;;;;;;;4944310;28;20063;-83
2023/06/17 18:28:45;;;;;;;13.10;7.00;;;;;;;;;;4923606;28;20051;-83
2023/06/17 18:31:11;;;;;;;11.20;7.22;;;;;;;;;;4909240;28;20135;-83
2023/06/17 18:33:37;;;;;;;9.13;7.60;;;;;;;;;;4903409;28;20046;-83
2023/06/17 18:36:03;;;;;;;9.93;7.20;;;;;;;;;;4898467;28;20043;-83
2023/06/17 18:38:29;;;;;;;7.72;6.93;;;;;;;;;;4898459;28;20090;-83
2023/06/17 18:40:55;;;;;;;9.70;7.40;;;;;;;;;;4900759;28;20088;-84
2023/06/17 18:43:21;;;;;;;9.63;7.00;;;;;;;;;;4901099;28;20058;-83
2023/06/17 18:45:48;;;;;;;10.60;7.30;;;;;;;;;;4882785;28;20134;-83
2023/06/17 18:48:14;;;;;;;10.45;7.47;;;;;;;;;;4887236;28;20142;-83
2023/06/17 18:50:40;;;;;;;10.80;8.32;;;;;;;;;;4888630;28;20093;-83
2023/06/17 18:53:06;;;;;;;12.43;7.93;;;;;;;;;;4888683;28;20074;-83
2023/06/17 18:55:32;;;;;;;8.50;7.60;;;;;;;;;;4908644;28;20138;-83
2023/06/17 18:57:59;;;;;;;19.38;13.40;;;;;;;;;;4902235;28;20979;-83
2023/06/17 19:00:25;;;;;;;72.45;51.00;;;;;;;;;;4908253;28;20042;-83
2023/06/17 19:02:51;;;;;;;116.20;95.05;;;;;;;;;;4881127;28;20054;-83
2023/06/17 19:05:17;;;;;;;153.73;109.65;;;;;;;;;;4895317;28;20499;-83
2023/06/17 19:07:45;;;;;;;392.55;243.80;;;;;;;;;;4901035;28;20043;-83
2023/06/17 19:10:11;;;;;;;209.98;123.78;;;;;;;;;;4902620;28;20043;-83
2023/06/17 19:12:37;;;;;;;136.05;77.88;;;;;;;;;;4901797;28;20499;-83
2023/06/17 19:15:04;;;;;;;67.50;36.88;;;;;;;;;;4899415;28;20386;-83
2023/06/17 19:17:30;;;;;;;42.38;22.70;;;;;;;;;;4887662;28;20042;-83
2023/06/17 19:19:56;;;;;;;87.35;45.33;;;;;;;;;;4882472;28;20073;-83
2023/06/17 19:22:23;;;;;;;43.55;22.65;;;;;;;;;;4893341;29;20162;-86
2023/06/17 19:24:49;;;;;;;32.13;17.17;;;;;;;;;;4901411;28;20054;-89
2023/06/17 19:27:15;;;;;;;18.30;10.80;;;;;;;;;;4889648;28;20054;-89
2023/06/17 19:29:42;;;;;;;12.68;9.57;;;;;;;;;;4897142;28;20047;-90
2023/06/17 19:32:08;;;;;;;11.93;10.48;;;;;;;;;;4890995;28;20395;-89
2023/06/17 19:34:34;;;;;;;14.25;9.77;;;;;;;;;;4918607;28;20065;-90
2023/06/17 19:37:00;;;;;;;14.23;10.50;;;;;;;;;;4903373;28;21707;-89
2023/06/17 19:39:27;;;;;;;12.80;10.65;;;;;;;;;;4895937;28;20165;-90
2023/06/17 19:41:53;;;;;;;11.75;9.57;;;;;;;;;;4900976;28;20116;-89
2023/06/17 19:44:19;;;;;;;15.63;10.77;;;;;;;;;;4904014;28;20082;-89
2023/06/17 19:46:45;;;;;;;14.02;10.90;;;;;;;;;;4916040;28;22164;-89
2023/06/17 19:49:11;;;;;;;18.23;12.48;;;;;;;;;;4901874;28;20505;-89
2023/06/17 19:51:37;;;;;;;21.08;14.73;;;;;;;;;;4906127;28;21020;-89
2023/06/17 19:54:03;;;;;;;19.67;14.10;;;;;;;;;;4897934;28;20043;-89
2023/06/17 19:56:30;;;;;;;16.42;11.82;;;;;;;;;;4890910;28;21379;-89
2023/06/17 19:58:56;;;;;;;14.85;11.63;;;;;;;;;;4888165;28;20043;-90
2023/06/17 20:01:23;;;;;;;14.45;11.52;;;;;;;;;;4875011;28;20086;-88
2023/06/17 20:03:49;;;;;;;14.57;11.60;;;;;;;;;;4870158;28;20046;-88
2023/06/17 20:06:15;;;;;;;23.58;13.32;;;;;;;;;;4871653;28;20499;-88
2023/06/17 20:08:44;;;;;;;29.60;19.35;;;;;;;;;;4905029;28;20058;-88
2023/06/17 20:11:10;;;;;;;45.28;25.92;;;;;;;;;;4902620;28;20154;-88
2023/06/17 20:13:36;;;;;;;17.92;13.10;;;;;;;;;;4891562;28;20066;-88
2023/06/17 20:16:02;;;;;;;14.85;10.93;;;;;;;;;;4884849;28;20098;-88
2023/06/17 20:18:28;;;;;;;15.32;10.95;;;;;;;;;;4905998;28;20780;-88
2023/06/17 20:20:55;;;;;;;12.65;10.73;;;;;;;;;;4899690;28;20229;-89
2023/06/17 20:23:23;;;;;;;12.98;10.07;;;;;;;;;;4885620;28;20565;-88
2023/06/17 20:25:49;;;;;;;11.32;10.18;;;;;;;;;;4885588;28;20398;-88
2023/06/17 20:28:15;;;;;;;11.85;10.48;;;;;;;;;;4901950;28;20447;-88
2023/06/17 20:30:44;;;;;;;11.88;10.13;;;;;;;;;;4882237;28;20039;-87
2023/06/17 20:33:10;;;;;;;12.27;10.50;;;;;;;;;;4902338;28;20195;-88
2023/06/17 20:35:37;;;;;;;12.23;10.98;;;;;;;;;;4884060;28;20395;-88
2023/06/17 20:38:03;;;;;;;11.50;10.30;;;;;;;;;;4902448;28;20047;-88
2023/06/17 20:40:29;;;;;;;12.93;11.23;;;;;;;;;;4869682;28;20254;-88
2023/06/17 20:42:55;;;;;;;14.10;11.05;;;;;;;;;;4869041;28;20071;-88
2023/06/17 20:45:21;;;;;;;12.02;10.82;;;;;;;;;;4887871;28;20039;-88
2023/06/17 20:47:47;;;;;;;14.75;11.02;;;;;;;;;;4873070;28;20126;-89
2023/06/17 20:50:13;;;;;;;14.07;11.05;;;;;;;;;;4901955;28;20075;-88
2023/06/17 20:52:39;;;;;;;12.80;11.40;;;;;;;;;;4888434;28;20039;-88
2023/06/17 20:55:06;;;;;;;13.82;10.57;;;;;;;;;;4897125;28;20044;-88
2023/06/17 20:57:32;;;;;;;12.50;11.20;;;;;;;;;;4888115;28;20068;-89
2023/06/17 20:59:59;;;;;;;12.73;11.40;;;;;;;;;;4863869;28;20055;-88
2023/06/17 21:02:25;;;;;;;11.88;10.73;;;;;;;;;;4889979;28;20055;-89
2023/06/17 21:04:51;;;;;;;13.52;11.98;;;;;;;;;;4873936;28;20484;-88
2023/06/17 21:07:18;;;;;;;14.23;12.63;;;;;;;;;;4903037;28;21152;-87
2023/06/17 21:09:44;;;;;;;14.02;12.27;;;;;;;;;;4885929;28;20046;-88
2023/06/17 21:12:10;;;;;;;12.52;11.15;;;;;;;;;;4890288;28;20050;-88
2023/06/17 21:14:36;;;;;;;13.13;11.50;;;;;;;;;;4902926;28;20446;-88
2023/06/17 21:17:02;;;;;;;12.88;11.57;;;;;;;;;;4888164;28;20043;-88
2023/06/17 21:19:28;;;;;;;13.32;11.93;;;;;;;;;;4894477;28;20043;-87
2023/06/17 21:21:54;;;;;;;14.60;12.20;;;;;;;;;;4899655;28;20039;-87
2023/06/17 21:24:20;;;;;;;14.73;13.23;;;;;;;;;;4874106;28;20039;-88
2023/06/17 21:26:46;;;;;;;14.02;12.70;;;;;;;;;;4885750;28;20071;-87
2023/06/17 21:29:12;;;;;;;15.35;13.75;;;;;;;;;;4876446;28;20598;-87
2023/06/17 21:31:38;;;;;;;14.82;13.32;;;;;;;;;;4893096;29;20039;-88
2023/06/17 21:34:05;;;;;;;15.95;13.50;;;;;;;;;;4868139;28;20051;-87
2023/06/17 21:36:31;;;;;;;18.27;14.80;;;;;;;;;;4900635;28;20121;-88
2023/06/17 21:38:57;;;;;;;18.38;14.77;;;;;;;;;;4884747;28;20039;-88
2023/06/17 21:41:23;;;;;;;16.30;14.43;;;;;;;;;;4870082;28;20067;-88
2023/06/17 21:43:49;;;;;;;15.98;14.25;;;;;;;;;;4883611;28;20081;-88
2023/06/17 21:46:15;;;;;;;17.10;14.48;;;;;;;;;;4891354;28;20138;-88
2023/06/17 21:48:42;;;;;;;19.20;15.25;;;;;;;;;;4860689;29;20659;-88